KVCT/VCT METAR and TAF weather

Enter ICAO airport designator
Station Type Date Time Source
KVCT METAR 2019/08/21 02:51 UTC NOAA

KVCT 210251Z AUTO 16009KT 10SM CLR 28/23 A2999 RMK AO2 SLP153 T02830228 51007


Station Type Date Time Source
KVCT Decoded METAR 2019/08/21 02:51 UTC NOAA

Station name not available
Aug 20, 2019 - 10:51 PM EDT / 2019.08.21 0251 UTC
Wind: from the SSE (160 degrees) at 10 MPH (9 KT):0
Visibility: 10 mile(s):0
Sky conditions: clear
Temperature: 82.9 F (28.3 C)
Dew Point: 73.0 F (22.8 C)
Relative Humidity: 72%
Pressure (altimeter): 29.99 in. Hg (1015 hPa)
Pressure tendency: 0.02 inches (0.7 hPa) higher than three hours ago
ob: KVCT 210251Z AUTO 16009KT 10SM CLR 28/23 A2999 RMK AO2 SLP153 T02830228 51007
cycle: 3

Station Type Date Time Source
KVCT TAF 2019/08/20 20:24 UTC NOAA

TAF
AMD KVCT 202022Z 2020/2118 18011KT P6SM BKN060
TEMPO 2020/2024 6SM HZ
FM210000 16009KT P6SM FEW025 SCT250
FM210700 13004KT P6SM SCT020
TEMPO 2109/2113 5SM BR BKN020
FM211400 20006KT P6SM SCT030

Example: see airport list